createdAt,value
2019-05-02T00:08:09.550Z,23.32
2019-05-02T00:13:39.623Z,24.70
2019-05-02T00:24:41.488Z,33.30
2019-05-02T00:47:06.115Z,32.90
2019-05-02T00:58:16.439Z,37.35
2019-05-02T01:01:16.689Z,38.20
2019-05-02T01:04:00.067Z,37.35
2019-05-02T01:06:44.626Z,38.13
2019-05-02T01:09:23.627Z,42.15
2019-05-02T01:12:08.302Z,35.40
2019-05-02T01:14:46.910Z,31.87
2019-05-02T01:17:30.884Z,39.38
2019-05-02T01:20:10.519Z,33.67
2019-05-02T01:22:52.320Z,33.40
2019-05-02T01:25:33.476Z,29.45
2019-05-02T01:28:19.646Z,32.13
2019-05-02T01:34:18.081Z,29.92
2019-05-02T01:37:11.901Z,34.50
2019-05-02T01:39:49.911Z,35.73
2019-05-02T01:42:39.613Z,35.23
2019-05-02T01:45:13.324Z,34.13
2019-05-02T01:47:54.129Z,43.02
2019-05-02T01:50:34.888Z,37.67
2019-05-02T01:53:15.527Z,35.83
2019-05-02T01:55:57.579Z,36.60
2019-05-02T01:58:38.915Z,38.15
2019-05-02T02:01:21.396Z,34.53
2019-05-02T02:04:01.863Z,39.80
2019-05-02T02:06:43.408Z,41.35
2019-05-02T02:09:25.590Z,40.90
2019-05-02T02:12:09.917Z,47.03
2019-05-02T02:14:53.481Z,53.10
2019-05-02T02:17:31.199Z,41.23
2019-05-02T02:20:15.571Z,43.42
2019-05-02T02:25:59.663Z,50.48
2019-05-02T02:28:40.319Z,50.43
2019-05-02T02:31:20.819Z,57.90
2019-05-02T02:34:01.244Z,57.62
2019-05-02T02:36:41.931Z,53.28
2019-05-02T02:39:22.652Z,59.27
2019-05-02T02:42:03.428Z,54.10
2019-05-02T02:47:52.986Z,53.15
2019-05-02T02:50:36.876Z,56.53
2019-05-02T02:53:24.159Z,57.27
2019-05-02T02:56:03.431Z,61.80
2019-05-02T02:58:46.058Z,67.67
2019-05-02T03:01:29.096Z,61.88
2019-05-02T03:04:09.924Z,71.70
2019-05-02T03:06:50.963Z,65.65
2019-05-02T03:09:31.895Z,73.05
2019-05-02T03:15:28.085Z,68.33
2019-05-02T03:18:05.479Z,68.35
2019-05-02T03:20:46.220Z,74.22
2019-05-02T03:23:27.701Z,67.12
2019-05-02T03:26:15.152Z,72.95
2019-05-02T03:28:57.554Z,75.85
2019-05-02T03:31:33.308Z,76.60
2019-05-02T03:34:14.565Z,72.47
2019-05-02T03:37:03.005Z,73.45
2019-05-02T03:39:37.287Z,80.00
2019-05-02T03:42:18.411Z,71.45
2019-05-02T03:45:04.376Z,72.53
2019-05-02T03:47:43.478Z,76.42
2019-05-02T03:50:32.737Z,81.50
2019-05-02T03:55:50.616Z,93.35
2019-05-02T04:04:00.036Z,112.25
2019-05-02T04:06:43.724Z,115.82
2019-05-02T04:12:18.616Z,115.50
2019-05-02T04:14:59.325Z,113.25
2019-05-02T04:34:17.629Z,115.15
2019-05-02T04:37:01.080Z,115.22
2019-05-02T04:39:39.879Z,104.65
2019-05-02T04:42:23.194Z,107.20
2019-05-02T04:45:20.633Z,112.97
2019-05-02T04:47:54.870Z,112.28
2019-05-02T04:50:29.421Z,111.40
2019-05-02T04:53:10.296Z,104.25
2019-05-02T04:56:01.556Z,113.42
2019-05-02T04:58:37.233Z,105.97
2019-05-02T05:01:15.947Z,105.65
2019-05-02T05:04:02.207Z,105.75
2019-05-02T05:06:40.842Z,111.00
2019-05-02T05:09:22.319Z,104.67
2019-05-02T05:12:02.852Z,104.40
2019-05-02T05:14:43.467Z,105.50
2019-05-02T05:17:25.082Z,107.60
2019-05-02T05:20:13.724Z,110.83
2019-05-02T05:22:49.606Z,109.42
2019-05-02T05:25:37.915Z,113.30
2019-05-02T05:28:20.067Z,113.15
2019-05-02T05:31:01.290Z,108.00
2019-05-02T05:33:42.055Z,112.92
2019-05-02T05:36:28.964Z,110.20
2019-05-02T05:39:08.374Z,110.20
2019-05-02T05:41:52.177Z,103.78
2019-05-02T05:44:32.686Z,106.78
2019-05-02T05:47:17.692Z,105.35
2019-05-02T05:49:57.660Z,102.53
2019-05-02T05:52:42.295Z,103.97
2019-05-02T05:55:24.244Z,79.37
2019-05-02T05:58:12.271Z,80.32
2019-05-02T06:00:53.835Z,119.90
2019-05-02T06:03:29.083Z,136.60
2019-05-02T06:06:14.815Z,134.78
2019-05-02T06:08:54.194Z,135.97
2019-05-02T06:11:35.227Z,136.92
2019-05-02T06:14:20.030Z,130.82
2019-05-02T06:16:58.731Z,131.80
2019-05-02T06:19:39.388Z,136.60
2019-05-02T06:22:24.329Z,135.32
2019-05-02T06:25:02.957Z,138.20
2019-05-02T06:27:44.133Z,140.88
2019-05-02T06:30:27.118Z,137.07
2019-05-02T06:36:00.908Z,131.22
2019-05-02T06:38:39.271Z,143.00
2019-05-02T06:44:01.779Z,144.57
2019-05-02T06:46:42.226Z,142.37
2019-05-02T06:49:24.877Z,147.17
2019-05-02T06:52:05.986Z,141.25
2019-05-02T06:54:47.079Z,149.65
2019-05-02T06:57:28.336Z,143.65
2019-05-02T07:00:09.156Z,145.90
2019-05-02T07:02:49.455Z,136.72
2019-05-02T07:05:30.088Z,137.12
2019-05-02T07:08:11.978Z,142.28
2019-05-02T07:10:56.030Z,148.93
2019-05-02T07:13:36.204Z,134.45
2019-05-02T07:22:21.903Z,136.40
2019-05-02T07:25:06.873Z,140.30
2019-05-02T07:27:44.759Z,141.73
2019-05-02T07:30:25.403Z,149.07
2019-05-02T07:33:06.341Z,136.05
2019-05-02T07:35:47.464Z,138.20
2019-05-02T07:41:07.107Z,143.05
2019-05-02T07:46:51.221Z,144.70
2019-05-02T07:49:26.805Z,140.65
2019-05-02T07:52:07.380Z,140.90
2019-05-02T08:22:34.935Z,135.88
2019-05-02T08:39:25.932Z,139.75
2019-05-02T08:42:04.649Z,129.38
2019-05-02T08:44:51.192Z,140.57
2019-05-02T08:47:28.543Z,137.80
2019-05-02T08:50:10.516Z,137.32
2019-05-02T08:52:51.567Z,133.63
2019-05-02T08:55:32.142Z,136.10
2019-05-02T08:58:14.910Z,140.12
2019-05-02T09:00:55.615Z,139.65
2019-05-02T09:03:54.729Z,137.07
2019-05-02T09:06:22.524Z,135.97
2019-05-02T09:09:01.175Z,134.37
2019-05-02T09:11:43.886Z,127.42
2019-05-02T09:14:24.310Z,137.62
2019-05-02T09:17:11.958Z,133.07
2019-05-02T09:19:59.459Z,141.75
2019-05-02T09:22:29.963Z,140.00
2019-05-02T09:25:12.490Z,134.12
2019-05-02T09:27:52.838Z,130.25
2019-05-02T09:30:33.421Z,135.00
2019-05-02T09:33:14.622Z,140.25
2019-05-02T09:35:55.348Z,124.85
2019-05-02T09:38:35.660Z,127.55
2019-05-02T09:41:19.336Z,116.40
2019-05-02T09:43:58.639Z,106.65
2019-05-02T09:46:39.712Z,107.47
2019-05-02T09:49:22.057Z,117.75
2019-05-02T09:52:03.474Z,120.72
2019-05-02T09:54:46.156Z,128.72
2019-05-02T09:57:26.914Z,123.78
2019-05-02T10:11:32.296Z,111.42
2019-05-02T10:14:12.941Z,105.07
2019-05-02T10:16:57.654Z,98.12
2019-05-02T10:19:43.016Z,97.40
2019-05-02T10:22:19.019Z,101.07
2019-05-02T10:24:59.454Z,90.15
2019-05-02T10:27:46.029Z,85.05
2019-05-02T10:30:24.694Z,100.95
2019-05-02T10:33:09.386Z,89.32
2019-05-02T10:35:52.405Z,78.30
2019-05-02T10:38:32.919Z,77.17
2019-05-02T10:41:13.895Z,80.30
2019-05-02T10:43:57.707Z,79.50
2019-05-02T10:49:42.887Z,82.82
2019-05-02T10:52:29.624Z,77.35
2019-05-02T10:55:06.679Z,77.05
2019-05-02T10:57:47.600Z,83.17
2019-05-02T11:00:33.138Z,77.92
2019-05-02T11:03:18.775Z,64.77
2019-05-02T11:06:05.515Z,73.65
2019-05-02T11:08:45.945Z,67.92
2019-05-02T11:11:26.424Z,69.05
2019-05-02T11:17:26.372Z,62.60
2019-05-02T11:20:09.733Z,58.15
2019-05-02T11:22:52.634Z,69.42
2019-05-02T11:25:33.221Z,55.43
2019-05-02T11:28:14.147Z,64.85
2019-05-02T11:33:41.918Z,62.75
2019-05-02T11:39:17.113Z,52.45
2019-05-02T11:44:41.843Z,53.20
2019-05-02T11:47:26.458Z,51.95
2019-05-02T11:50:04.482Z,52.90
2019-05-02T11:55:43.731Z,49.98
2019-05-02T12:01:12.671Z,40.05
2019-05-02T12:09:35.423Z,46.65
2019-05-02T12:26:22.289Z,42.00
2019-05-02T12:29:03.263Z,38.35
2019-05-02T12:31:47.202Z,34.53
2019-05-02T12:34:26.619Z,36.85
2019-05-02T12:37:07.388Z,39.15
2019-05-02T12:39:47.763Z,44.30
2019-05-02T12:42:28.605Z,39.35
2019-05-02T12:45:12.167Z,30.30
2019-05-02T12:47:52.867Z,34.38
2019-05-02T12:50:33.392Z,28.02
2019-05-02T12:53:13.863Z,28.27
2019-05-02T12:55:54.767Z,29.15
2019-05-02T12:58:35.094Z,26.27
2019-05-02T13:01:15.700Z,23.73
2019-05-02T13:04:02.864Z,30.37
2019-05-02T13:06:45.195Z,35.78
2019-05-02T13:09:25.791Z,31.82
2019-05-02T13:12:13.300Z,30.27
2019-05-02T13:14:53.814Z,34.80
2019-05-02T13:17:37.186Z,36.03
2019-05-02T13:20:18.871Z,35.73
2019-05-02T13:23:18.435Z,35.10
2019-05-02T13:25:59.663Z,38.02
2019-05-02T13:28:42.336Z,36.75
2019-05-02T13:31:47.592Z,37.05
2019-05-02T13:34:48.640Z,39.13
2019-05-02T13:37:31.802Z,38.83
2019-05-02T13:40:18.064Z,39.40
2019-05-02T13:42:59.083Z,41.85
2019-05-02T13:45:58.490Z,39.30
2019-05-02T13:48:39.087Z,33.40
2019-05-02T13:51:22.204Z,33.65
2019-05-02T13:54:02.904Z,38.88
2019-05-02T13:56:52.395Z,37.20
2019-05-02T14:02:19.541Z,33.90
2019-05-02T14:05:02.296Z,35.48
2019-05-02T14:07:48.400Z,38.67
2019-05-02T14:10:39.438Z,38.78
2019-05-02T14:13:15.054Z,36.28
2019-05-02T14:15:55.770Z,39.88
2019-05-02T14:18:36.603Z,39.10
2019-05-02T14:21:17.263Z,37.63
2019-05-02T14:23:58.411Z,36.60
2019-05-02T14:26:39.331Z,37.13
2019-05-02T14:29:18.515Z,39.40
2019-05-02T14:35:26.385Z,28.80
2019-05-02T14:38:22.151Z,35.48
2019-05-02T14:41:13.350Z,30.45
2019-05-02T14:43:57.251Z,29.40
2019-05-02T14:46:39.622Z,31.62
2019-05-02T14:49:23.922Z,27.70
2019-05-02T14:52:07.060Z,27.35
2019-05-02T14:54:48.004Z,22.77
2019-05-02T14:57:28.387Z,23.57
2019-05-02T15:00:09.048Z,28.02
2019-05-02T15:02:51.756Z,18.87
2019-05-02T15:05:32.684Z,23.45
2019-05-02T15:08:13.287Z,26.42
2019-05-02T15:10:56.590Z,16.57
2019-05-02T15:13:40.921Z,15.75
2019-05-02T15:21:52.541Z,19.45
2019-05-02T15:24:33.268Z,15.93
2019-05-02T15:30:07.141Z,16.10
2019-05-02T15:32:52.144Z,16.20
2019-05-02T15:35:47.106Z,22.00
2019-05-02T15:38:32.363Z,14.15
2019-05-02T15:41:15.369Z,15.63
2019-05-02T15:43:59.270Z,15.28
2019-05-02T15:46:42.441Z,9.65
2019-05-02T15:49:22.776Z,15.50
2019-05-02T15:52:03.648Z,21.52
2019-05-02T15:54:44.351Z,26.23
2019-05-02T15:57:25.140Z,25.70
2019-05-02T16:00:06.575Z,17.55
2019-05-02T16:02:47.647Z,23.30
2019-05-02T16:05:28.462Z,19.82
2019-05-02T16:08:09.243Z,24.52
2019-05-02T16:13:47.024Z,22.50
2019-05-02T16:16:26.219Z,16.27
2019-05-02T16:19:07.193Z,20.30
2019-05-02T16:24:56.795Z,26.40
2019-05-02T16:30:47.618Z,24.23
2019-05-02T16:33:27.968Z,31.48
2019-05-02T16:36:08.662Z,29.10
2019-05-02T16:38:49.338Z,28.17
2019-05-02T16:41:32.414Z,29.12
2019-05-02T16:44:13.342Z,32.38
2019-05-02T16:46:54.360Z,31.93
2019-05-02T16:49:34.719Z,29.30
2019-05-02T16:52:16.139Z,29.07
2019-05-02T16:54:57.027Z,27.27
2019-05-02T16:57:37.586Z,24.85
2019-05-02T17:00:22.899Z,22.48
2019-05-02T17:03:03.817Z,27.25
2019-05-02T17:05:49.184Z,23.15
2019-05-02T17:08:49.452Z,35.40
2019-05-02T17:11:35.722Z,29.70
2019-05-02T17:14:14.848Z,21.68
2019-05-02T17:16:55.950Z,25.37
2019-05-02T17:19:36.950Z,27.20
2019-05-02T17:22:21.881Z,21.48
2019-05-02T17:25:02.442Z,22.73
2019-05-02T17:27:42.391Z,30.15
2019-05-02T17:30:23.731Z,23.40
2019-05-02T17:33:07.212Z,31.12
2019-05-02T17:35:51.303Z,34.60
2019-05-02T17:38:29.390Z,21.65
2019-05-02T17:41:11.728Z,46.23
2019-05-02T17:43:52.581Z,29.07
2019-05-02T17:46:33.602Z,20.75
2019-05-02T17:49:14.386Z,24.45
2019-05-02T17:52:19.753Z,16.07
2019-05-02T17:54:57.357Z,16.97
2019-05-02T17:57:39.231Z,11.90
2019-05-02T18:00:23.014Z,13.65
2019-05-02T18:05:53.406Z,11.85
2019-05-02T18:08:34.320Z,13.00
2019-05-02T18:11:15.423Z,12.03
2019-05-02T18:13:56.070Z,12.47
2019-05-02T18:16:39.200Z,9.13
2019-05-02T18:22:23.234Z,11.93
2019-05-02T18:27:46.818Z,9.73
2019-05-02T18:30:27.369Z,8.68
2019-05-02T18:33:08.311Z,9.60
2019-05-02T18:35:49.648Z,12.73
2019-05-02T18:38:29.892Z,9.88
2019-05-02T18:41:12.115Z,8.70
2019-05-02T18:43:52.879Z,9.30
2019-05-02T18:46:36.814Z,9.20
2019-05-02T18:49:17.126Z,8.60
2019-05-02T18:51:58.791Z,10.05
2019-05-02T18:54:43.914Z,11.60
2019-05-02T18:57:25.982Z,10.85
2019-05-02T19:00:04.587Z,15.05
2019-05-02T19:02:45.633Z,9.88
2019-05-02T19:05:26.697Z,10.70
2019-05-02T19:08:07.926Z,13.05
2019-05-02T19:11:02.555Z,14.65
2019-05-02T19:13:32.760Z,14.33
2019-05-02T19:16:13.904Z,15.40
2019-05-02T19:18:57.373Z,15.13
2019-05-02T19:21:39.496Z,25.48
2019-05-02T19:24:20.043Z,16.60
2019-05-02T19:27:02.178Z,20.65
2019-05-02T19:29:48.196Z,19.67
2019-05-02T19:32:28.372Z,18.25
2019-05-02T19:35:08.842Z,17.25
2019-05-02T19:43:32.497Z,12.28
2019-05-02T19:46:16.834Z,14.07
2019-05-02T19:51:44.732Z,10.95
2019-05-02T19:54:26.279Z,10.95
2019-05-02T19:59:52.383Z,7.22
2019-05-02T20:02:32.761Z,7.65
2019-05-02T20:19:04.011Z,7.70
2019-05-02T20:33:14.147Z,4.37
2019-05-02T20:38:36.678Z,5.12
2019-05-02T20:41:17.335Z,4.22
2019-05-02T20:43:58.019Z,4.05
2019-05-02T20:46:38.493Z,3.83
2019-05-02T20:49:19.163Z,3.42
2019-05-02T20:51:59.614Z,4.10
2019-05-02T20:54:42.675Z,5.08
2019-05-02T20:57:23.303Z,3.77
2019-05-02T21:00:03.931Z,4.58
2019-05-02T21:02:45.130Z,4.40
2019-05-02T21:05:28.285Z,3.30
2019-05-02T21:11:17.534Z,2.85
2019-05-02T21:13:58.252Z,3.52
2019-05-02T21:16:39.195Z,3.87
2019-05-02T21:19:21.734Z,4.20
2019-05-02T21:22:02.924Z,4.67
2019-05-02T21:24:43.774Z,5.17
2019-05-02T21:27:24.107Z,5.60
2019-05-02T21:30:04.747Z,4.67
2019-05-02T21:32:45.611Z,4.65
2019-05-02T21:35:26.158Z,4.37
2019-05-02T21:38:07.027Z,4.75
2019-05-02T21:40:47.763Z,4.30
2019-05-02T21:43:28.292Z,7.35
2019-05-02T21:46:08.787Z,5.67
2019-05-02T21:48:49.502Z,5.10
2019-05-02T21:51:51.658Z,5.22
2019-05-02T21:57:34.427Z,5.17
2019-05-02T22:00:17.699Z,4.55
2019-05-02T22:02:58.714Z,4.55
2019-05-02T22:05:39.263Z,5.85
2019-05-02T22:08:21.681Z,4.25
2019-05-02T22:11:02.539Z,4.60
2019-05-02T22:13:43.359Z,4.45
2019-05-02T22:16:24.479Z,4.78
2019-05-02T22:21:54.455Z,4.30
2019-05-02T22:24:35.174Z,4.37
2019-05-02T22:27:15.954Z,4.60
2019-05-02T22:29:56.415Z,3.90
2019-05-02T22:35:26.203Z,3.42
2019-05-02T22:41:14.699Z,3.52
2019-05-02T22:43:55.366Z,4.20
2019-05-02T22:46:43.680Z,3.83
2019-05-02T22:49:25.944Z,3.98
2019-05-02T22:52:06.663Z,3.60
2019-05-02T22:54:46.971Z,4.03
2019-05-02T22:57:27.771Z,4.17
2019-05-02T23:00:08.567Z,3.90
2019-05-02T23:02:49.702Z,4.33
2019-05-02T23:05:30.123Z,4.60
2019-05-02T23:08:12.455Z,4.00
2019-05-02T23:10:53.587Z,3.25
2019-05-02T23:16:16.476Z,4.30
2019-05-02T23:18:57.412Z,6.08
2019-05-02T23:21:37.935Z,6.47
2019-05-02T23:30:22.526Z,6.58
2019-05-02T23:35:45.051Z,5.85
2019-05-02T23:41:12.760Z,6.50
2019-05-02T23:46:42.386Z,6.92
2019-05-02T23:54:58.819Z,8.95
2019-05-02T23:57:41.887Z,9.00
